createdAt,value
2022-12-20T00:01:26.556Z,59.01
2022-12-20T00:03:56.256Z,59.12
2022-12-20T00:06:24.567Z,58.90
2022-12-20T00:08:54.994Z,58.87
2022-12-20T00:11:22.122Z,58.94
2022-12-20T00:13:50.616Z,58.62
2022-12-20T00:16:20.222Z,58.97
2022-12-20T00:18:50.907Z,59.05
2022-12-20T00:21:17.944Z,58.83
2022-12-20T00:23:45.006Z,58.98
2022-12-20T00:26:15.370Z,58.90
2022-12-20T00:28:44.503Z,58.97
2022-12-20T00:31:17.180Z,58.96
2022-12-20T00:33:47.925Z,58.97
2022-12-20T00:36:17.139Z,58.70
2022-12-20T00:38:45.243Z,58.97
2022-12-20T00:41:14.689Z,58.77
2022-12-20T00:43:42.357Z,58.81
2022-12-20T00:46:13.067Z,59.00
2022-12-20T00:48:40.445Z,59.01
2022-12-20T00:51:11.439Z,59.04
2022-12-20T00:53:39.583Z,59.13
2022-12-20T00:56:08.060Z,59.11
2022-12-20T00:58:37.048Z,59.02
2022-12-20T01:01:05.065Z,58.99
2022-12-20T01:03:34.285Z,59.06
2022-12-20T01:06:02.695Z,59.02
2022-12-20T01:08:31.174Z,59.04
2022-12-20T01:11:00.939Z,59.02
2022-12-20T01:13:28.921Z,59.15
2022-12-20T01:15:56.289Z,58.95
2022-12-20T01:18:23.597Z,59.17
2022-12-20T01:21:02.579Z,59.15
2022-12-20T01:23:30.158Z,59.21
2022-12-20T01:25:59.358Z,59.31
2022-12-20T01:28:27.220Z,59.29
2022-12-20T01:30:54.319Z,59.28
2022-12-20T01:33:21.461Z,59.04
2022-12-20T01:35:58.342Z,59.01
2022-12-20T01:38:26.173Z,59.07
2022-12-20T01:40:53.786Z,59.38
2022-12-20T01:43:22.324Z,59.52
2022-12-20T01:45:49.679Z,59.71
2022-12-20T01:48:22.167Z,59.69
2022-12-20T01:50:53.458Z,59.62
2022-12-20T01:53:24.284Z,59.53
2022-12-20T01:55:51.519Z,59.66
2022-12-20T01:58:21.898Z,59.77
2022-12-20T02:00:49.350Z,59.79
2022-12-20T02:03:17.298Z,59.53
2022-12-20T02:05:46.734Z,59.72
2022-12-20T02:08:17.274Z,59.74
2022-12-20T02:11:08.372Z,59.75
2022-12-20T02:13:47.849Z,59.66
2022-12-20T02:16:25.209Z,59.62
2022-12-20T02:19:05.065Z,59.52
2022-12-20T02:21:39.497Z,59.33
2022-12-20T02:24:48.175Z,59.44
2022-12-20T02:27:41.180Z,59.41
2022-12-20T02:30:15.304Z,59.71
2022-12-20T02:32:50.081Z,59.60
2022-12-20T02:35:22.870Z,59.69
2022-12-20T02:37:53.290Z,58.94
2022-12-20T02:40:25.636Z,59.24
2022-12-20T02:42:59.229Z,59.27
2022-12-20T02:45:33.914Z,59.40
2022-12-20T02:48:07.703Z,59.36
2022-12-20T02:50:40.285Z,59.62
2022-12-20T02:53:09.837Z,59.58
2022-12-20T02:55:46.891Z,59.62
2022-12-20T02:58:26.127Z,59.54
2022-12-20T03:00:59.547Z,59.71
2022-12-20T03:03:26.696Z,59.93
2022-12-20T03:05:55.758Z,59.72
2022-12-20T03:08:23.916Z,59.73
2022-12-20T03:10:53.206Z,59.59
2022-12-20T03:13:21.115Z,59.49
2022-12-20T03:15:48.178Z,59.47
2022-12-20T03:18:16.549Z,59.28
2022-12-20T03:20:43.852Z,59.30
2022-12-20T03:23:11.137Z,59.18
2022-12-20T03:25:38.194Z,59.22
2022-12-20T03:28:05.157Z,59.09
2022-12-20T03:30:32.318Z,59.29
2022-12-20T03:32:59.323Z,59.32
2022-12-20T03:35:27.616Z,59.30
2022-12-20T03:37:55.561Z,59.51
2022-12-20T03:40:23.215Z,59.43
2022-12-20T03:42:50.191Z,59.15
2022-12-20T03:45:17.477Z,59.06
2022-12-20T03:47:44.645Z,58.91
2022-12-20T03:50:12.383Z,58.93
2022-12-20T03:52:40.753Z,58.92
2022-12-20T03:55:09.650Z,59.04
2022-12-20T03:57:36.687Z,58.81
2022-12-20T04:00:04.940Z,58.47
2022-12-20T04:02:32.191Z,58.63
2022-12-20T04:04:59.267Z,58.53
2022-12-20T04:07:26.233Z,58.50
2022-12-20T04:09:54.599Z,58.66
2022-12-20T04:12:21.553Z,58.64
2022-12-20T04:14:48.491Z,58.49
2022-12-20T04:17:15.728Z,58.41
2022-12-20T04:19:42.720Z,58.78
2022-12-20T04:22:10.059Z,58.52
2022-12-20T04:24:38.120Z,58.62
2022-12-20T04:27:06.497Z,58.63
2022-12-20T04:29:33.470Z,58.65
2022-12-20T04:32:00.542Z,58.62
2022-12-20T04:34:27.872Z,58.56
2022-12-20T04:36:54.885Z,58.80
2022-12-20T04:39:21.904Z,58.79
2022-12-20T04:41:48.968Z,59.02
2022-12-20T04:44:17.543Z,59.00
2022-12-20T04:46:44.568Z,59.32
2022-12-20T04:49:11.599Z,59.24
2022-12-20T04:51:38.524Z,59.31
2022-12-20T04:54:05.780Z,59.39
2022-12-20T04:56:32.965Z,59.59
2022-12-20T04:59:00.144Z,59.83
2022-12-20T05:01:28.628Z,59.85
2022-12-20T05:03:56.063Z,60.14
2022-12-20T05:06:23.070Z,60.43
2022-12-20T05:08:50.203Z,60.36
2022-12-20T05:11:17.706Z,60.54
2022-12-20T05:13:44.771Z,60.74
2022-12-20T05:16:12.099Z,60.97
2022-12-20T05:18:44.671Z,61.07
2022-12-20T05:21:34.582Z,61.32
2022-12-20T05:24:20.458Z,61.57
2022-12-20T05:26:47.487Z,62.38
2022-12-20T05:29:14.476Z,62.39
2022-12-20T05:31:41.735Z,63.30
2022-12-20T05:34:10.190Z,63.65
2022-12-20T05:36:37.239Z,64.19
2022-12-20T05:39:04.924Z,63.92
2022-12-20T05:41:32.163Z,64.48
2022-12-20T05:43:59.363Z,64.42
2022-12-20T05:46:26.499Z,64.46
2022-12-20T05:48:53.529Z,64.48
2022-12-20T05:51:21.951Z,64.54
2022-12-20T05:53:49.088Z,64.56
2022-12-20T05:56:16.186Z,64.33
2022-12-20T05:58:43.178Z,64.44
2022-12-20T06:01:10.516Z,64.16
2022-12-20T06:03:38.159Z,64.24
2022-12-20T06:06:13.623Z,64.32
2022-12-20T06:08:43.139Z,64.62
2022-12-20T06:11:10.400Z,64.38
2022-12-20T06:13:37.520Z,64.39
2022-12-20T06:16:05.170Z,64.19
2022-12-20T06:18:32.185Z,64.65
2022-12-20T06:20:59.379Z,64.67
2022-12-20T06:23:26.343Z,64.58
2022-12-20T06:25:55.165Z,64.94
2022-12-20T06:28:22.362Z,64.85
2022-12-20T06:30:53.743Z,64.96
2022-12-20T06:33:21.085Z,64.78
2022-12-20T06:35:50.349Z,64.83
2022-12-20T06:38:18.005Z,65.04
2022-12-20T06:40:45.319Z,64.85
2022-12-20T06:43:13.664Z,64.76
2022-12-20T06:45:42.076Z,64.76
2022-12-20T06:48:09.908Z,64.55
2022-12-20T06:50:37.656Z,64.57
2022-12-20T06:53:04.813Z,64.31
2022-12-20T06:55:31.860Z,64.73
2022-12-20T06:57:58.904Z,64.70
2022-12-20T07:00:27.519Z,64.61
2022-12-20T07:02:55.066Z,64.57
2022-12-20T07:05:22.545Z,64.26
2022-12-20T07:07:49.711Z,64.45
2022-12-20T07:10:17.241Z,63.92
2022-12-20T07:12:48.159Z,64.09
2022-12-20T07:15:16.032Z,63.82
2022-12-20T07:17:46.828Z,63.89
2022-12-20T07:20:15.048Z,63.82
2022-12-20T07:22:42.432Z,63.40
2022-12-20T07:25:11.278Z,63.29
2022-12-20T07:27:38.401Z,63.08
2022-12-20T07:30:07.476Z,62.95
2022-12-20T07:32:34.614Z,62.79
2022-12-20T07:35:02.945Z,62.68
2022-12-20T07:37:30.379Z,62.54
2022-12-20T07:39:57.454Z,62.18
2022-12-20T07:42:31.967Z,61.90
2022-12-20T07:45:02.744Z,61.85
2022-12-20T07:47:29.965Z,61.65
2022-12-20T07:49:57.004Z,61.47
2022-12-20T07:52:28.726Z,61.44
2022-12-20T07:55:02.609Z,61.11
2022-12-20T07:57:38.072Z,61.29
2022-12-20T08:00:08.653Z,61.47
2022-12-20T08:02:44.572Z,61.39
2022-12-20T08:05:12.472Z,61.50
2022-12-20T08:07:43.477Z,61.39
2022-12-20T08:10:14.245Z,61.79
2022-12-20T08:12:45.145Z,61.54
2022-12-20T08:15:13.230Z,61.63
2022-12-20T08:17:41.092Z,61.69
2022-12-20T08:20:10.197Z,61.41
2022-12-20T08:22:37.290Z,61.60
2022-12-20T08:25:07.435Z,61.52
2022-12-20T08:27:34.488Z,61.58
2022-12-20T08:30:01.495Z,61.49
2022-12-20T08:32:29.356Z,61.33
2022-12-20T08:34:56.465Z,61.52
2022-12-20T08:37:23.501Z,61.32
2022-12-20T08:39:50.533Z,61.38
2022-12-20T08:42:19.102Z,61.25
2022-12-20T08:44:46.292Z,61.39
2022-12-20T08:47:13.349Z,61.54
2022-12-20T08:49:47.214Z,61.39
2022-12-20T08:52:14.840Z,61.21
2022-12-20T08:54:41.838Z,61.22
2022-12-20T08:57:09.246Z,61.03
2022-12-20T08:59:37.585Z,61.09
2022-12-20T09:02:04.954Z,60.84
2022-12-20T09:04:32.287Z,61.14
2022-12-20T09:06:59.306Z,60.86
2022-12-20T09:09:26.491Z,60.82
2022-12-20T09:11:56.168Z,60.50
2022-12-20T09:14:23.901Z,60.53
2022-12-20T09:16:52.271Z,60.14
2022-12-20T09:19:19.259Z,60.11
2022-12-20T09:21:46.215Z,59.96
2022-12-20T09:24:13.131Z,59.67
2022-12-20T09:26:42.998Z,59.56
2022-12-20T09:29:12.847Z,59.27
2022-12-20T09:31:39.927Z,59.30
2022-12-20T09:34:10.078Z,59.32
2022-12-20T09:36:38.162Z,59.35
2022-12-20T09:39:05.189Z,59.21
2022-12-20T09:41:38.356Z,58.98
2022-12-20T09:44:15.319Z,58.79
2022-12-20T09:46:45.967Z,58.92
2022-12-20T09:49:19.108Z,59.00
2022-12-20T09:52:23.299Z,58.74
2022-12-20T09:55:13.633Z,58.83
2022-12-20T09:57:57.567Z,59.08
2022-12-20T10:00:24.717Z,59.04
2022-12-20T10:03:08.854Z,58.85
2022-12-20T10:05:49.359Z,58.71
2022-12-20T10:08:43.658Z,58.12
2022-12-20T10:11:51.068Z,58.36
2022-12-20T10:14:57.651Z,58.51
2022-12-20T10:17:49.780Z,58.44
2022-12-20T10:20:34.823Z,58.32
2022-12-20T10:23:15.311Z,58.02
2022-12-20T10:25:44.976Z,57.68
2022-12-20T10:28:18.906Z,57.57
2022-12-20T10:30:46.195Z,57.55
2022-12-20T10:33:22.078Z,57.12
2022-12-20T10:35:50.790Z,57.61
2022-12-20T10:38:22.850Z,57.57
2022-12-20T10:44:11.535Z,56.88
2022-12-20T10:46:43.544Z,56.49
2022-12-20T10:49:32.172Z,56.70
2022-12-20T10:52:15.321Z,56.47
2022-12-20T10:54:46.567Z,56.57
2022-12-20T10:57:21.496Z,56.15
2022-12-20T10:59:54.317Z,56.36
2022-12-20T11:02:34.941Z,55.88
2022-12-20T11:05:24.368Z,56.07
2022-12-20T11:10:51.844Z,55.37
2022-12-20T11:13:29.073Z,55.61
2022-12-20T11:16:01.525Z,55.53
2022-12-20T11:18:45.375Z,55.13
2022-12-20T11:21:31.054Z,55.28
2022-12-20T11:24:11.612Z,55.10
2022-12-20T11:27:15.609Z,54.84
2022-12-20T11:30:18.415Z,55.01
2022-12-20T11:33:30.412Z,55.52
2022-12-20T11:36:05.198Z,55.19
2022-12-20T11:38:42.530Z,55.25
2022-12-20T11:41:29.433Z,55.57
2022-12-20T11:44:25.725Z,56.50
2022-12-20T11:47:32.417Z,57.26
2022-12-20T11:50:32.687Z,57.05
2022-12-20T11:53:08.713Z,57.46
2022-12-20T11:55:41.711Z,57.73
2022-12-20T11:58:20.128Z,58.15
2022-12-20T12:00:56.859Z,56.93
2022-12-20T12:03:33.706Z,57.91
2022-12-20T12:06:07.123Z,58.51
2022-12-20T12:08:46.784Z,59.16
2022-12-20T12:12:03.824Z,59.50
2022-12-20T12:14:25.826Z,59.75
2022-12-20T12:17:05.174Z,60.22
2022-12-20T12:19:43.136Z,60.75
2022-12-20T12:22:21.871Z,60.64
2022-12-20T12:24:54.226Z,60.65
2022-12-20T12:27:27.390Z,60.65
2022-12-20T12:29:58.104Z,60.94
2022-12-20T12:32:33.037Z,60.87
2022-12-20T12:35:23.872Z,60.69
2022-12-20T12:38:09.227Z,60.76
2022-12-20T12:41:14.997Z,60.91
2022-12-20T12:43:50.077Z,61.30
2022-12-20T12:46:25.990Z,61.28
2022-12-20T12:49:01.663Z,60.93
2022-12-20T12:51:33.114Z,61.38
2022-12-20T12:54:21.901Z,61.55
2022-12-20T12:56:50.764Z,61.58
2022-12-20T12:59:51.722Z,61.77
2022-12-20T13:02:52.271Z,61.81
2022-12-20T13:05:37.043Z,62.18
2022-12-20T13:08:17.395Z,61.99
2022-12-20T13:11:01.741Z,61.99
2022-12-20T13:13:29.244Z,61.90
2022-12-20T13:16:13.968Z,61.79
2022-12-20T13:19:10.827Z,61.76
2022-12-20T13:21:43.825Z,61.86
2022-12-20T13:24:50.928Z,63.16
2022-12-20T13:27:45.309Z,63.19
2022-12-20T13:30:28.563Z,62.90
2022-12-20T13:33:24.794Z,63.29
2022-12-20T13:36:25.536Z,63.13
2022-12-20T13:38:58.678Z,63.74
2022-12-20T13:41:44.310Z,63.99
2022-12-20T13:44:40.052Z,63.94
2022-12-20T13:47:28.349Z,64.10
2022-12-20T13:49:59.571Z,64.17
2022-12-20T13:52:31.320Z,64.33
2022-12-20T13:55:07.868Z,64.27
2022-12-20T13:57:44.762Z,64.37
2022-12-20T14:00:18.672Z,64.82
2022-12-20T14:02:46.142Z,64.46
2022-12-20T14:05:21.614Z,64.85
2022-12-20T14:07:58.520Z,64.37
2022-12-20T14:10:29.934Z,64.56
2022-12-20T14:12:58.249Z,64.27
2022-12-20T14:15:30.005Z,64.10
2022-12-20T14:17:57.865Z,64.03
2022-12-20T14:20:31.710Z,63.81
2022-12-20T14:23:05.918Z,64.00
2022-12-20T14:25:43.081Z,63.37
2022-12-20T14:28:29.745Z,63.33
2022-12-20T14:31:00.153Z,63.12
2022-12-20T14:33:34.250Z,62.75
2022-12-20T14:36:16.493Z,62.90
2022-12-20T14:38:46.548Z,62.85
2022-12-20T14:41:39.406Z,62.84
2022-12-20T14:44:20.300Z,62.65
2022-12-20T14:46:52.160Z,62.56
2022-12-20T14:49:28.068Z,62.59
2022-12-20T14:52:14.773Z,62.23
2022-12-20T14:57:42.911Z,62.49
2022-12-20T15:00:21.336Z,62.30
2022-12-20T15:02:59.369Z,62.16
2022-12-20T15:05:43.143Z,62.04
2022-12-20T15:08:12.377Z,62.27
2022-12-20T15:10:42.132Z,62.31
2022-12-20T15:13:16.027Z,62.36
2022-12-20T15:15:44.041Z,62.09
2022-12-20T15:18:18.253Z,61.94
2022-12-20T15:21:00.262Z,61.84
2022-12-20T15:23:27.435Z,61.59
2022-12-20T15:25:54.891Z,61.62
2022-12-20T15:28:26.172Z,61.51
2022-12-20T15:30:55.216Z,61.36
2022-12-20T15:33:25.821Z,61.39
2022-12-20T15:35:53.740Z,61.48
2022-12-20T15:38:40.948Z,61.42
2022-12-20T15:41:19.956Z,61.63
2022-12-20T15:43:51.505Z,61.36
2022-12-20T15:46:18.511Z,61.43
2022-12-20T15:48:45.525Z,61.39
2022-12-20T15:51:18.040Z,61.34
2022-12-20T15:53:45.319Z,61.74
2022-12-20T15:56:19.393Z,61.59
2022-12-20T15:58:49.568Z,61.65
2022-12-20T16:01:22.136Z,61.52
2022-12-20T16:03:49.579Z,61.20
2022-12-20T16:06:17.144Z,61.31
2022-12-20T16:08:46.594Z,61.21
2022-12-20T16:11:21.928Z,61.28
2022-12-20T16:13:51.429Z,61.26
2022-12-20T16:16:21.612Z,61.07
2022-12-20T16:18:51.488Z,61.33
2022-12-20T16:21:21.898Z,61.52
2022-12-20T16:23:53.157Z,61.54
2022-12-20T16:26:23.412Z,61.37
2022-12-20T16:28:54.077Z,61.27
2022-12-20T16:31:27.795Z,61.09
2022-12-20T16:33:55.908Z,61.16
2022-12-20T16:36:24.111Z,61.72
2022-12-20T16:38:52.342Z,61.75
2022-12-20T16:41:23.891Z,61.81
2022-12-20T16:43:52.170Z,62.04
2022-12-20T16:46:22.097Z,62.41
2022-12-20T16:48:49.774Z,62.29
2022-12-20T16:51:24.995Z,62.17
2022-12-20T16:56:40.790Z,62.04
2022-12-20T16:59:19.167Z,62.41
2022-12-20T17:01:49.288Z,62.25
2022-12-20T17:04:18.980Z,62.72
2022-12-20T17:06:46.626Z,62.80
2022-12-20T17:11:58.911Z,62.85
2022-12-20T17:14:27.195Z,62.33
2022-12-20T17:16:54.363Z,62.50
2022-12-20T17:19:21.637Z,62.27
2022-12-20T17:24:34.146Z,62.06
2022-12-20T17:27:01.262Z,62.23
2022-12-20T17:29:29.976Z,62.11
2022-12-20T17:31:58.693Z,62.30
2022-12-20T17:34:30.821Z,62.06
2022-12-20T17:36:58.634Z,62.35
2022-12-20T17:39:26.411Z,62.56
2022-12-20T17:41:55.696Z,62.90
2022-12-20T17:44:25.303Z,63.00
2022-12-20T17:46:54.970Z,63.04
2022-12-20T17:49:25.490Z,62.93
2022-12-20T17:51:52.978Z,62.90
2022-12-20T17:54:26.871Z,62.62
2022-12-20T17:56:54.889Z,62.78
2022-12-20T17:59:22.446Z,62.96
2022-12-20T18:01:49.870Z,62.98
2022-12-20T18:04:18.452Z,62.97
2022-12-20T18:06:46.154Z,63.03
2022-12-20T18:09:15.919Z,62.57
2022-12-20T18:11:43.593Z,62.52
2022-12-20T18:14:11.681Z,63.04
2022-12-20T18:16:39.545Z,62.99
2022-12-20T18:19:08.453Z,62.85
2022-12-20T18:21:36.752Z,62.45
2022-12-20T18:24:05.678Z,62.42
2022-12-20T18:26:33.510Z,62.65
2022-12-20T18:29:02.565Z,62.84
2022-12-20T18:31:32.455Z,62.83
2022-12-20T18:34:01.070Z,62.55
2022-12-20T18:36:30.367Z,62.84
2022-12-20T18:39:00.818Z,62.98
2022-12-20T18:41:30.038Z,62.94
2022-12-20T18:43:59.131Z,62.81
2022-12-20T18:46:26.713Z,63.25
2022-12-20T18:48:56.318Z,63.25
2022-12-20T18:51:26.305Z,63.31
2022-12-20T18:53:55.885Z,63.34
2022-12-20T18:56:28.579Z,63.44
2022-12-20T18:59:03.016Z,63.34
2022-12-20T19:01:35.972Z,63.62
2022-12-20T19:04:05.794Z,63.33
2022-12-20T19:06:33.201Z,63.54
2022-12-20T19:09:00.882Z,63.65
2022-12-20T19:11:29.268Z,63.81
2022-12-20T19:13:56.589Z,63.89
2022-12-20T19:16:26.557Z,64.07
2022-12-20T19:18:53.986Z,64.14
2022-12-20T19:21:26.790Z,64.12
2022-12-20T19:23:56.834Z,64.12
2022-12-20T19:26:27.122Z,64.30
2022-12-20T19:28:55.964Z,64.36
2022-12-20T19:31:26.213Z,64.42
2022-12-20T19:33:55.808Z,64.75
2022-12-20T19:36:25.783Z,64.15
2022-12-20T19:38:56.535Z,64.88
2022-12-20T19:41:25.810Z,64.86
2022-12-20T19:43:52.979Z,65.17
2022-12-20T19:46:28.431Z,64.98
2022-12-20T19:48:58.208Z,64.74
2022-12-20T19:51:26.506Z,65.06
2022-12-20T19:53:55.861Z,64.72
2022-12-20T19:56:25.548Z,64.55
2022-12-20T19:58:53.682Z,64.09
2022-12-20T20:01:25.680Z,64.52
2022-12-20T20:03:53.763Z,64.38
2022-12-20T20:06:21.537Z,64.34
2022-12-20T20:08:49.680Z,64.61
2022-12-20T20:11:18.856Z,64.58
2022-12-20T20:13:46.350Z,64.73
2022-12-20T20:16:18.414Z,64.77
2022-12-20T20:18:50.734Z,64.78
2022-12-20T20:21:23.258Z,64.96
2022-12-20T20:23:52.530Z,64.79
2022-12-20T20:26:23.326Z,64.76
2022-12-20T20:28:51.334Z,64.82
2022-12-20T20:31:19.825Z,64.83
2022-12-20T20:33:47.115Z,64.59
2022-12-20T20:36:18.054Z,64.71
2022-12-20T20:38:46.172Z,64.85
2022-12-20T20:41:14.028Z,65.11
2022-12-20T20:43:41.814Z,64.66
2022-12-20T20:46:13.218Z,64.86
2022-12-20T20:48:41.221Z,64.58
2022-12-20T20:51:08.444Z,64.81
2022-12-20T20:53:36.922Z,64.70
2022-12-20T20:56:05.737Z,64.75
2022-12-20T20:58:33.269Z,64.94
2022-12-20T21:01:04.126Z,64.76
2022-12-20T21:03:32.271Z,65.27
2022-12-20T21:06:34.954Z,65.40
2022-12-20T21:08:47.848Z,65.37
2022-12-20T21:11:15.041Z,65.46
2022-12-20T21:13:42.007Z,64.97
2022-12-20T21:16:11.655Z,65.04
2022-12-20T21:18:38.636Z,64.98
2022-12-20T21:21:08.213Z,64.88
2022-12-20T21:23:35.158Z,65.16
2022-12-20T21:26:03.897Z,64.97
2022-12-20T21:28:31.578Z,64.99
2022-12-20T21:31:00.021Z,65.01
2022-12-20T21:33:27.558Z,64.94
2022-12-20T21:36:02.717Z,64.95
2022-12-20T21:38:30.246Z,65.13
2022-12-20T21:41:01.455Z,65.05
2022-12-20T21:43:30.031Z,65.14
2022-12-20T21:45:57.356Z,65.10
2022-12-20T21:48:25.942Z,65.38
2022-12-20T21:51:01.158Z,65.33
2022-12-20T21:53:28.544Z,65.26
2022-12-20T21:55:56.469Z,65.27
2022-12-20T21:58:24.243Z,65.09
2022-12-20T22:00:55.796Z,65.22
2022-12-20T22:03:24.700Z,65.12
2022-12-20T22:05:54.364Z,65.14
2022-12-20T22:08:23.144Z,65.33
2022-12-20T22:11:00.060Z,65.25
2022-12-20T22:13:27.882Z,65.36
2022-12-20T22:15:56.677Z,65.64
2022-12-20T22:18:24.502Z,65.56
2022-12-20T22:20:51.771Z,65.97
2022-12-20T22:23:18.695Z,65.90
2022-12-20T22:25:45.614Z,65.68
2022-12-20T22:28:12.798Z,65.88
2022-12-20T22:30:41.197Z,65.88
2022-12-20T22:33:09.732Z,65.88
2022-12-20T22:35:37.492Z,66.00
2022-12-20T22:38:05.250Z,66.03
2022-12-20T22:40:32.465Z,66.00
2022-12-20T22:42:59.382Z,65.52
2022-12-20T22:45:26.389Z,65.78
2022-12-20T22:47:53.320Z,65.72
2022-12-20T22:50:21.622Z,65.88
2022-12-20T22:52:48.489Z,65.61
2022-12-20T22:55:15.879Z,65.42
2022-12-20T22:57:42.834Z,65.18
2022-12-20T23:00:13.049Z,65.51
2022-12-20T23:02:40.822Z,65.50
2022-12-20T23:05:09.398Z,65.13
2022-12-20T23:07:37.635Z,65.28
2022-12-20T23:10:25.693Z,65.42
2022-12-20T23:13:27.958Z,65.65
2022-12-20T23:15:54.840Z,65.17
2022-12-20T23:18:21.736Z,65.30
2022-12-20T23:21:22.197Z,65.08
2022-12-20T23:23:55.710Z,65.66
2022-12-20T23:26:23.361Z,65.38
2022-12-20T23:28:50.969Z,64.99
2022-12-20T23:31:17.923Z,65.35
2022-12-20T23:33:44.894Z,65.46
2022-12-20T23:36:12.306Z,64.99
2022-12-20T23:38:39.700Z,65.16
2022-12-20T23:41:10.447Z,65.13
2022-12-20T23:43:38.307Z,65.21
2022-12-20T23:46:09.054Z,65.02
2022-12-20T23:48:36.397Z,65.10
2022-12-20T23:51:04.237Z,65.04
2022-12-20T23:53:31.665Z,65.02
2022-12-20T23:56:02.131Z,64.84
2022-12-20T23:58:30.811Z,64.62
